Time;durP1;ratioP1;P1;durP2;ratioP2;P2;SDS_P1;SDS_P2;PMS_P1;PMS_P2;Temp;Humidity;BMP_temperature;BMP_pressure;BME280_temperature;BME280_humidity;BME280_pressure;Samples;Min_cycle;Max_cycle;Signal;HPM_P1;HPM_P2
2022/03/12 00:01:52;;;;;;;15.57;7.90;;;;;;;-1.46;47.25;101648.38;4998611;28;20416;-76
2022/03/12 00:04:17;;;;;;;13.37;7.50;;;;;;;-1.51;47.22;101634.25;5005096;28;20508;-76
2022/03/12 00:06:43;;;;;;;15.23;7.43;;;;;;;-1.52;47.06;101635.94;5018847;28;20053;-76
2022/03/12 00:09:08;;;;;;;15.40;8.07;;;;;;;-1.52;47.91;101638.50;5001214;28;20030;-75
2022/03/12 00:11:40;;;;;;;14.57;7.60;;;;;;;-1.50;47.20;101639.50;4998135;28;20480;-76
2022/03/12 00:14:07;;;;;;;16.27;7.90;;;;;;;-1.50;47.29;101642.09;4999641;28;20041;-76
2022/03/12 00:16:33;;;;;;;16.37;8.27;;;;;;;-1.48;47.67;101643.09;5000876;28;20032;-75
2022/03/12 00:19:02;;;;;;;14.23;6.77;;;;;;;-1.50;46.96;101636.03;5013186;28;20030;-76
2022/03/12 00:21:35;;;;;;;17.73;8.10;;;;;;;-1.50;47.43;101634.31;5002237;28;20534;-76
2022/03/12 00:24:02;;;;;;;14.30;7.97;;;;;;;-1.47;46.57;101637.09;5000942;28;20129;-76
2022/03/12 00:26:29;;;;;;;13.77;7.57;;;;;;;-1.44;47.17;101626.94;4998322;28;20515;-75
2022/03/12 00:28:54;;;;;;;13.17;7.13;;;;;;;-1.30;45.75;101624.28;4999857;28;20480;-76
2022/03/12 00:31:21;;;;;;;12.53;6.63;;;;;;;-1.03;45.61;101615.50;4998860;28;20065;-76
2022/03/12 00:33:46;;;;;;;10.47;6.63;;;;;;;-0.78;44.65;101615.25;4998019;28;20066;-76
2022/03/12 00:36:12;;;;;;;12.20;6.70;;;;;;;-0.60;44.00;101625.75;5012942;28;20073;-76
2022/03/12 00:38:38;;;;;;;12.10;7.23;;;;;;;-0.45;44.22;101618.84;5015024;28;20033;-76
2022/03/12 00:41:07;;;;;;;13.03;6.67;;;;;;;-0.33;43.85;101621.22;4999439;28;20123;-76
2022/03/12 00:43:32;;;;;;;13.47;6.83;;;;;;;-0.27;43.00;101618.94;4997720;28;20046;-75
2022/03/12 00:45:58;;;;;;;12.63;6.77;;;;;;;-0.23;43.28;101610.53;4999545;28;20037;-76
2022/03/12 00:48:23;;;;;;;13.17;7.00;;;;;;;-0.16;42.94;101611.75;4998709;28;20030;-76
2022/03/12 00:50:49;;;;;;;12.80;6.97;;;;;;;-0.15;43.09;101613.56;4998787;28;20057;-75
2022/03/12 00:53:15;;;;;;;13.20;6.33;;;;;;;-0.18;42.36;101608.19;5000083;28;20122;-75
2022/03/12 00:55:41;;;;;;;12.70;6.50;;;;;;;-0.20;42.18;101609.81;5001149;28;20030;-75
2022/03/12 00:58:06;;;;;;;13.53;7.50;;;;;;;-0.16;42.66;101614.34;5001675;28;20112;-76
2022/03/12 01:00:31;;;;;;;12.93;6.73;;;;;;;-0.10;42.54;101611.22;4999258;28;20133;-76
2022/03/12 01:02:57;;;;;;;14.20;7.50;;;;;;;-0.11;42.70;101610.28;4999563;28;20116;-75
2022/03/12 01:05:39;;;;;;;12.77;7.50;;;;;;;-0.07;41.84;101611.38;4997173;28;20073;-75
2022/03/12 01:08:05;;;;;;;13.52;6.88;;;;;;;-0.05;42.63;101602.88;4999894;28;20476;-76
2022/03/12 01:10:31;;;;;;;12.87;6.77;;;;;;;-0.01;41.99;101606.50;4997473;28;20035;-76
2022/03/12 01:12:56;;;;;;;13.50;7.23;;;;;;;-0.04;42.05;101606.34;4999835;28;20555;-76
2022/03/12 01:15:22;;;;;;;11.30;6.40;;;;;;;-0.06;42.60;101606.25;5007761;28;20539;-76
2022/03/12 01:17:47;;;;;;;16.10;6.87;;;;;;;-0.06;42.15;101601.06;4999222;28;20404;-76
2022/03/12 01:20:12;;;;;;;14.20;7.27;;;;;;;-0.11;42.03;101593.84;4996246;28;20049;-76
2022/03/12 01:22:39;;;;;;;12.97;7.03;;;;;;;-0.12;42.52;101587.75;5009983;28;20122;-76
2022/03/12 01:25:06;;;;;;;11.40;6.07;;;;;;;-0.14;42.23;101591.97;5019259;28;20050;-76
2022/03/12 01:27:33;;;;;;;14.23;7.27;;;;;;;-0.16;42.57;101588.41;4998346;28;20495;-77
2022/03/12 01:29:59;;;;;;;12.07;6.90;;;;;;;-0.20;42.53;101583.88;5002104;28;20048;-76
2022/03/12 01:32:28;;;;;;;12.73;6.70;;;;;;;-0.25;42.23;101581.00;4998523;28;20034;-76
2022/03/12 01:34:53;;;;;;;11.17;6.37;;;;;;;-0.31;42.79;101590.19;4996263;28;20045;-76
2022/03/12 01:37:20;;;;;;;11.33;6.67;;;;;;;-0.37;43.13;101595.91;4999056;28;20174;-76
2022/03/12 01:39:49;;;;;;;14.73;7.20;;;;;;;-0.45;42.84;101587.72;4995856;28;20039;-76
2022/03/12 01:42:16;;;;;;;15.87;8.33;;;;;;;-0.51;42.95;101592.56;5000233;28;20034;-76
2022/03/12 01:44:42;;;;;;;10.47;5.87;;;;;;;-0.52;42.62;101583.00;5017265;28;20030;-76
2022/03/12 01:47:10;;;;;;;11.73;6.70;;;;;;;-0.52;43.16;101590.78;5015959;28;20041;-75
2022/03/12 01:49:36;;;;;;;11.60;6.80;;;;;;;-0.52;43.26;101590.78;5003461;28;20046;-76
2022/03/12 01:52:02;;;;;;;13.63;6.20;;;;;;;-0.41;42.97;101593.06;5001029;28;20042;-76
2022/03/12 01:54:30;;;;;;;13.60;6.63;;;;;;;-0.39;42.41;101589.75;5001576;28;20037;-76
2022/03/12 01:56:58;;;;;;;12.00;6.60;;;;;;;-0.39;43.15;101587.16;5003369;28;20052;-76
2022/03/12 01:59:24;;;;;;;12.53;6.57;;;;;;;-0.42;42.41;101578.31;5015601;28;20085;-76
2022/03/12 02:01:54;;;;;;;12.10;6.33;;;;;;;-0.39;42.37;101578.47;5001787;28;20067;-76
2022/03/12 02:04:22;;;;;;;12.17;6.27;;;;;;;-0.36;41.97;101571.75;5009332;28;20038;-76
2022/03/12 02:06:47;;;;;;;10.97;6.33;;;;;;;-0.30;42.03;101568.59;5021003;28;20029;-76
2022/03/12 02:09:15;;;;;;;14.57;6.90;;;;;;;-0.24;42.11;101579.31;5000859;28;20030;-76
2022/03/12 02:11:42;;;;;;;11.30;6.33;;;;;;;-0.27;42.05;101571.38;5000038;28;20053;-76
2022/03/12 02:14:10;;;;;;;10.93;6.43;;;;;;;-0.35;42.41;101572.66;5003005;28;20038;-76
2022/03/12 02:16:36;;;;;;;11.47;5.67;;;;;;;-0.40;43.20;101574.09;5000434;28;20549;-76
2022/03/12 02:19:04;;;;;;;16.17;6.63;;;;;;;-0.50;42.62;101568.44;5000182;28;20030;-76
2022/03/12 02:21:44;;;;;;;13.63;6.93;;;;;;;-0.57;43.77;101571.47;5000819;28;20037;-76
2022/03/12 02:24:11;;;;;;;12.40;7.20;;;;;;;-0.67;43.38;101574.38;5001342;28;20031;-76
2022/03/12 02:26:38;;;;;;;15.90;7.43;;;;;;;-0.76;44.18;101569.56;5000435;28;20034;-76
2022/03/12 02:29:09;;;;;;;13.43;6.80;;;;;;;-0.80;44.53;101566.72;5002747;28;20033;-76
2022/03/12 02:31:36;;;;;;;12.37;6.83;;;;;;;-0.83;44.57;101567.44;5013038;28;20454;-76
2022/03/12 02:34:01;;;;;;;13.07;7.60;;;;;;;-0.92;45.11;101567.81;5002202;28;20042;-76
2022/03/12 02:36:28;;;;;;;11.83;6.60;;;;;;;-0.91;44.46;101569.59;4999691;28;20041;-76
2022/03/12 02:38:54;;;;;;;13.87;6.97;;;;;;;-0.91;44.61;101577.38;4979161;28;20043;-77
2022/03/12 02:41:22;;;;;;;14.87;7.70;;;;;;;-0.92;44.44;101573.00;5001955;28;20061;-77
2022/03/12 02:43:47;;;;;;;13.27;7.00;;;;;;;-0.91;44.77;101564.41;5000235;28;20050;-76
2022/03/12 02:46:14;;;;;;;12.23;6.47;;;;;;;-0.90;43.82;101581.72;5001449;28;20220;-76
2022/03/12 02:48:40;;;;;;;11.87;6.70;;;;;;;-0.91;44.25;101574.78;4999957;28;20039;-76
2022/03/12 02:51:06;;;;;;;11.20;6.57;;;;;;;-0.94;44.73;101574.59;4999785;28;20095;-76
2022/03/12 02:53:32;;;;;;;12.23;7.00;;;;;;;-0.97;44.19;101571.84;4999578;28;20038;-76
2022/03/12 02:55:58;;;;;;;12.70;6.83;;;;;;;-0.99;44.85;101564.78;4998144;28;20030;-76
2022/03/12 02:58:23;;;;;;;12.53;6.70;;;;;;;-1.04;44.30;101561.91;5001347;28;20073;-76
2022/03/12 03:00:49;;;;;;;12.60;6.07;;;;;;;-1.06;44.40;101558.34;5022809;28;20122;-76
2022/03/12 03:03:15;;;;;;;13.43;6.50;;;;;;;-1.04;44.12;101559.34;4999032;28;20851;-76
2022/03/12 03:05:51;;;;;;;10.77;6.27;;;;;;;-1.03;44.28;101553.34;4998449;28;20046;-76
2022/03/12 03:08:19;;;;;;;11.53;6.23;;;;;;;-0.98;44.02;101551.91;5002329;28;20044;-76
2022/03/12 03:10:47;;;;;;;11.57;6.23;;;;;;;-0.85;42.73;101550.00;5067024;27;20034;-76
2022/03/12 03:13:15;;;;;;;12.03;5.97;;;;;;;-0.71;42.17;101551.66;5002999;28;20041;-76
2022/03/12 03:15:42;;;;;;;10.47;5.50;;;;;;;-0.61;41.91;101545.28;5000161;28;20488;-76
2022/03/12 03:18:10;;;;;;;13.60;6.67;;;;;;;-0.51;41.50;101553.66;5000174;28;20042;-76
2022/03/12 03:20:36;;;;;;;11.33;6.07;;;;;;;-0.48;42.13;101550.34;5002131;28;20038;-76
2022/03/12 03:23:01;;;;;;;9.93;5.37;;;;;;;-0.41;41.85;101554.16;4998957;28;20042;-76
2022/03/12 03:25:26;;;;;;;9.40;4.80;;;;;;;-0.35;41.14;101557.97;5016027;28;20044;-76
2022/03/12 03:27:52;;;;;;;10.17;4.77;;;;;;;-0.30;40.98;101545.25;4980348;28;20042;-76
2022/03/12 03:30:18;;;;;;;9.10;4.57;;;;;;;-0.23;40.47;101544.78;5001862;28;20397;-76
2022/03/12 03:32:44;;;;;;;11.70;5.63;;;;;;;-0.17;40.26;101542.50;4997451;28;20057;-76
2022/03/12 03:35:09;;;;;;;9.53;5.40;;;;;;;-0.16;40.37;101539.09;5013952;28;20042;-76
2022/03/12 03:37:34;;;;;;;9.37;4.87;;;;;;;-0.10;39.76;101536.84;5002102;28;20038;-76
2022/03/12 03:40:04;;;;;;;10.77;4.90;;;;;;;-0.10;39.60;101533.38;5002438;28;20058;-76
2022/03/12 03:42:29;;;;;;;10.33;5.13;;;;;;;-0.18;39.96;101540.75;4997313;28;20038;-76
2022/03/12 03:44:59;;;;;;;12.63;5.30;;;;;;;-0.27;39.86;101532.44;5000939;28;20038;-76
2022/03/12 03:47:25;;;;;;;10.80;5.27;;;;;;;-0.33;40.38;101534.72;5000880;28;20117;-76
2022/03/12 03:49:50;;;;;;;10.93;5.13;;;;;;;-0.37;40.46;101543.13;4998655;28;20455;-76
2022/03/12 03:52:15;;;;;;;10.57;5.67;;;;;;;-0.38;39.45;101539.66;4998272;28;20061;-76
2022/03/12 03:54:43;;;;;;;9.13;4.93;;;;;;;-0.28;39.33;101548.84;5000700;28;20030;-76
2022/03/12 03:57:16;;;;;;;9.77;4.53;;;;;;;-0.17;39.92;101546.81;5000390;28;20043;-76
2022/03/12 03:59:41;;;;;;;12.00;5.13;;;;;;;-0.12;39.33;101542.75;4998482;28;20034;-76
2022/03/12 04:02:07;;;;;;;10.27;5.37;;;;;;;-0.05;39.24;101548.38;5003297;28;20042;-76
2022/03/12 04:04:35;;;;;;;10.53;4.83;;;;;;;-0.03;38.84;101538.97;5001243;28;20042;-76
2022/03/12 04:07:02;;;;;;;9.13;4.80;;;;;;;0.02;38.96;101544.38;5012556;28;20030;-76
2022/03/12 04:09:29;;;;;;;12.17;5.10;;;;;;;0.06;38.83;101548.03;4998496;28;20511;-76
2022/03/12 04:11:54;;;;;;;11.13;4.80;;;;;;;0.03;38.91;101545.25;4999978;28;20034;-76
2022/03/12 04:14:21;;;;;;;10.57;4.73;;;;;;;0.02;38.16;101549.56;5000250;28;20061;-76
2022/03/12 04:16:46;;;;;;;15.13;7.93;;;;;;;-0.01;38.88;101546.81;4998426;28;20451;-76
2022/03/12 04:19:14;;;;;;;15.53;8.13;;;;;;;0.04;39.30;101545.34;5000900;28;20438;-76
2022/03/12 04:21:40;;;;;;;13.40;6.47;;;;;;;0.00;38.90;101546.03;5008725;28;20041;-76
2022/03/12 04:24:06;;;;;;;11.53;4.90;;;;;;;0.01;38.41;101552.09;4991172;28;20037;-76
2022/03/12 04:26:35;;;;;;;10.83;5.00;;;;;;;-0.02;38.67;101548.53;4997014;28;20042;-76
2022/03/12 04:29:08;;;;;;;9.87;4.77;;;;;;;-0.02;38.28;101548.53;4998183;28;20087;-76
2022/03/12 04:31:33;;;;;;;8.67;3.97;;;;;;;0.03;37.66;101550.44;4998729;28;20509;-76
2022/03/12 04:33:59;;;;;;;10.30;4.60;;;;;;;0.06;37.59;101548.03;5000676;28;20129;-76
2022/03/12 04:36:25;;;;;;;12.30;5.53;;;;;;;0.09;37.58;101555.97;5001594;28;20104;-76
2022/03/12 04:38:51;;;;;;;12.53;6.07;;;;;;;0.12;37.29;101550.94;5008678;28;20030;-76
2022/03/12 04:41:19;;;;;;;14.37;6.63;;;;;;;0.17;37.81;101560.75;4999641;28;20448;-76
2022/03/12 04:43:44;;;;;;;14.73;7.93;;;;;;;0.22;38.33;101558.41;4997830;28;20079;-76
2022/03/12 04:46:10;;;;;;;18.00;9.37;;;;;;;0.24;39.73;101549.00;4997890;28;20105;-76
2022/03/12 04:48:36;;;;;;;17.80;9.03;;;;;;;0.22;39.51;101558.41;4999728;28;20036;-76
2022/03/12 04:51:01;;;;;;;14.13;7.73;;;;;;;0.26;38.50;101546.47;5019263;27;20556;-77
2022/03/12 04:53:28;;;;;;;18.93;9.53;;;;;;;0.29;38.97;101542.34;5000629;28;20046;-76
2022/03/12 04:55:53;;;;;;;31.77;16.93;;;;;;;0.29;39.03;101544.94;5060386;28;20500;-76
2022/03/12 04:58:19;;;;;;;24.90;10.43;;;;;;;0.28;38.10;101548.31;5010808;28;20030;-76
2022/03/12 05:00:45;;;;;;;12.27;5.83;;;;;;;0.24;35.73;101551.59;5002903;28;20026;-76
2022/03/12 05:03:13;;;;;;;17.87;6.60;;;;;;;0.36;36.86;101557.41;5002222;28;20042;-76
2022/03/12 05:05:40;;;;;;;17.03;8.70;;;;;;;0.39;36.79;101547.19;5010080;28;20050;-76
2022/03/12 05:08:10;;;;;;;17.07;7.70;;;;;;;0.35;36.34;101550.44;4998091;28;20026;-76
2022/03/12 05:10:36;;;;;;;15.07;7.00;;;;;;;0.37;36.77;101547.94;4999659;28;20030;-76
2022/03/12 05:13:02;;;;;;;22.42;7.57;;;;;;;0.34;36.68;101548.66;4995970;28;20034;-76
2022/03/12 05:15:38;;;;;;;20.60;8.32;;;;;;;0.27;36.18;101549.16;5000292;28;20560;-75
2022/03/12 05:18:10;;;;;;;8.80;4.10;;;;;;;0.30;33.83;101549.31;4999144;28;20033;-76
2022/03/12 05:20:37;;;;;;;8.60;4.00;;;;;;;0.27;34.42;101545.66;5012855;28;20053;-77
2022/03/12 05:23:05;;;;;;;8.33;4.40;;;;;;;0.26;33.51;101549.94;4998538;28;20045;-76
2022/03/12 05:25:32;;;;;;;9.03;4.30;;;;;;;0.27;34.66;101550.88;4999880;28;20521;-76
2022/03/12 05:27:58;;;;;;;10.20;4.43;;;;;;;0.26;34.13;101557.72;4997126;28;20053;-76
2022/03/12 05:30:23;;;;;;;10.00;4.03;;;;;;;0.16;33.94;101558.97;4998241;28;20126;-76
2022/03/12 05:32:50;;;;;;;9.23;4.37;;;;;;;0.15;33.75;101570.16;4998591;28;20109;-75
2022/03/12 05:35:17;;;;;;;8.50;4.33;;;;;;;0.09;33.85;101572.44;4997061;28;20037;-74
2022/03/12 05:37:53;;;;;;;11.33;4.10;;;;;;;0.08;33.76;101572.34;5003076;28;20046;-76
2022/03/12 05:40:20;;;;;;;11.17;4.63;;;;;;;0.14;33.92;101577.88;5021021;28;20034;-75
2022/03/12 05:42:48;;;;;;;8.53;4.20;;;;;;;0.14;33.82;101576.16;5030702;28;20125;-74
2022/03/12 05:45:18;;;;;;;10.40;4.40;;;;;;;0.10;34.11;101584.59;5021620;28;20040;-75
2022/03/12 05:47:44;;;;;;;9.23;4.20;;;;;;;0.06;33.74;101584.38;5004111;28;20038;-75
2022/03/12 05:50:10;;;;;;;8.47;3.93;;;;;;;0.05;34.37;101591.25;5004223;28;20034;-76
2022/03/12 05:52:41;;;;;;;7.77;3.80;;;;;;;0.04;34.30;101597.25;5002600;28;20053;-75
2022/03/12 05:55:08;;;;;;;9.07;4.23;;;;;;;0.06;33.48;101593.06;5016878;28;20442;-75
2022/03/12 05:57:36;;;;;;;8.67;3.90;;;;;;;0.11;34.81;101590.72;5013488;28;20091;-75
2022/03/12 06:00:04;;;;;;;8.03;3.90;;;;;;;0.11;33.93;101591.59;5010708;28;20403;-75
2022/03/12 06:02:51;;;;;;;8.20;4.13;;;;;;;0.13;34.24;101595.16;5011095;28;20054;-75
2022/03/12 06:05:24;;;;;;;8.27;3.78;;;;;;;0.15;33.78;101597.81;5014428;28;20544;-75
2022/03/12 06:07:50;;;;;;;8.33;4.03;;;;;;;0.16;34.89;101599.63;4999023;28;20026;-75
2022/03/12 06:10:23;;;;;;;11.70;3.50;;;;;;;0.18;34.63;101597.97;5002888;28;20046;-75
2022/03/12 06:12:49;;;;;;;7.85;3.80;;;;;;;0.22;33.99;101605.13;5001335;28;20034;-75
2022/03/12 06:15:17;;;;;;;9.67;4.37;;;;;;;0.27;34.94;101603.69;5001319;28;20098;-75
2022/03/12 06:17:45;;;;;;;9.13;3.33;;;;;;;0.32;34.02;101598.72;4996696;28;20082;-75
2022/03/12 06:20:12;;;;;;;8.33;4.13;;;;;;;0.39;34.50;101604.31;5013343;28;20041;-75
2022/03/12 06:22:38;;;;;;;7.93;3.63;;;;;;;0.44;34.05;101609.75;5013065;28;20095;-75
2022/03/12 06:25:08;;;;;;;7.60;3.57;;;;;;;0.51;33.95;101611.84;5002002;28;20045;-75
2022/03/12 06:27:34;;;;;;;6.93;3.47;;;;;;;0.54;33.85;101603.31;4997596;28;20088;-75
2022/03/12 06:30:02;;;;;;;6.83;3.80;;;;;;;0.62;34.34;101602.00;4997911;28;20038;-75
2022/03/12 06:32:30;;;;;;;7.83;3.87;;;;;;;0.68;33.00;101599.72;5002540;28;20030;-75
2022/03/12 06:34:56;;;;;;;9.10;4.70;;;;;;;0.77;34.22;101600.19;4995611;28;20438;-75
2022/03/12 06:37:21;;;;;;;9.52;4.13;;;;;;;0.85;33.65;101606.66;5003924;28;20045;-75
2022/03/12 06:39:47;;;;;;;7.22;3.55;;;;;;;0.91;33.40;101603.47;5015838;28;20116;-75
2022/03/12 06:42:12;;;;;;;9.00;4.20;;;;;;;0.99;33.34;101603.88;4997513;28;20053;-75
2022/03/12 06:44:37;;;;;;;8.10;4.45;;;;;;;1.09;33.80;101598.31;5002536;28;20125;-75
2022/03/12 06:47:07;;;;;;;9.20;4.55;;;;;;;1.17;33.05;101599.56;5000228;28;20034;-75
2022/03/12 06:49:32;;;;;;;8.27;4.00;;;;;;;1.24;33.16;101600.78;5005282;28;20072;-75
2022/03/12 06:51:57;;;;;;;8.95;4.07;;;;;;;1.34;33.43;101607.28;5027347;28;20059;-76
2022/03/12 06:54:25;;;;;;;9.57;4.57;;;;;;;1.42;33.06;101605.97;5032390;28;20035;-75
2022/03/12 06:56:51;;;;;;;7.95;3.78;;;;;;;1.50;33.34;101610.72;5026428;28;20099;-75
2022/03/12 06:59:16;;;;;;;9.43;3.90;;;;;;;1.59;32.96;101614.56;5007969;28;20042;-75
2022/03/12 07:01:42;;;;;;;8.30;4.30;;;;;;;1.70;32.96;101613.34;5055803;28;20580;-74
2022/03/12 07:04:08;;;;;;;9.00;4.70;;;;;;;1.75;32.19;101607.53;5002147;28;20085;-75
2022/03/12 07:06:34;;;;;;;8.25;3.85;;;;;;;1.86;32.05;101617.56;5004317;28;20041;-75
2022/03/12 07:09:00;;;;;;;9.82;4.50;;;;;;;1.91;31.32;101613.47;5011961;28;20065;-75
2022/03/12 07:11:26;;;;;;;10.50;4.18;;;;;;;2.00;31.78;101624.31;5000176;28;20547;-74
2022/03/12 07:13:51;;;;;;;9.55;4.43;;;;;;;2.03;31.10;101615.75;5008143;28;20040;-75
2022/03/12 07:16:16;;;;;;;8.63;4.38;;;;;;;2.10;32.08;101616.13;5018161;28;20529;-75
2022/03/12 07:18:42;;;;;;;8.23;4.22;;;;;;;2.18;31.89;101614.75;5007866;28;20034;-75
2022/03/12 07:21:07;;;;;;;8.63;4.20;;;;;;;2.23;31.13;101622.78;5008861;28;20082;-75
2022/03/12 07:23:33;;;;;;;7.78;4.35;;;;;;;2.28;31.67;101622.97;5009748;28;20115;-75
2022/03/12 07:25:58;;;;;;;8.90;4.88;;;;;;;2.32;31.20;101625.78;5008357;28;20037;-75
2022/03/12 07:28:25;;;;;;;8.32;4.50;;;;;;;2.41;31.06;101622.69;5005086;28;20510;-75
2022/03/12 07:30:50;;;;;;;8.32;4.15;;;;;;;2.47;31.38;101625.56;5007354;28;20034;-75
2022/03/12 07:33:15;;;;;;;8.25;4.20;;;;;;;2.56;30.87;101622.47;5010983;28;20062;-75
2022/03/12 07:35:41;;;;;;;9.82;4.57;;;;;;;2.70;30.24;101626.59;5005160;28;20061;-75
2022/03/12 07:38:07;;;;;;;7.45;4.20;;;;;;;2.80;30.79;101626.16;5004782;28;20547;-75
2022/03/12 07:40:33;;;;;;;9.48;4.28;;;;;;;2.85;30.58;101618.50;5005286;28;20041;-75
2022/03/12 07:42:58;;;;;;;9.32;4.95;;;;;;;2.88;30.64;101628.19;5008630;28;20062;-75
2022/03/12 07:45:25;;;;;;;9.13;4.60;;;;;;;2.96;30.75;101632.00;5009774;28;20034;-75
2022/03/12 07:47:52;;;;;;;9.63;4.97;;;;;;;3.02;30.76;101630.56;5012521;28;20037;-75
2022/03/12 07:50:18;;;;;;;10.57;6.35;;;;;;;3.10;30.80;101630.88;5009174;28;20038;-75
2022/03/12 07:52:45;;;;;;;9.38;4.70;;;;;;;3.15;29.48;101634.56;5012115;28;20036;-72
2022/03/12 07:55:12;;;;;;;7.30;3.90;;;;;;;3.25;30.39;101631.53;5002749;28;20460;-73
2022/03/12 07:57:40;;;;;;;7.30;3.83;;;;;;;3.32;29.95;101632.66;5004182;28;20500;-72
2022/03/12 08:00:08;;;;;;;9.63;4.70;;;;;;;3.39;30.18;101631.19;5017646;28;20085;-72
2022/03/12 08:02:40;;;;;;;7.53;4.60;;;;;;;3.47;29.80;101630.66;5020263;28;20042;-72
2022/03/12 08:05:06;;;;;;;9.48;4.72;;;;;;;3.51;29.74;101631.66;5000322;28;20481;-72
2022/03/12 08:07:32;;;;;;;8.85;4.22;;;;;;;3.59;29.95;101624.13;5000233;28;20034;-72
2022/03/12 08:09:59;;;;;;;8.20;4.40;;;;;;;3.66;29.28;101631.41;4998755;28;20034;-72
2022/03/12 08:12:31;;;;;;;8.32;3.75;;;;;;;3.76;28.97;101630.94;4996457;28;20034;-72
2022/03/12 08:14:58;;;;;;;9.75;4.00;;;;;;;3.84;28.90;101619.06;4999853;28;20037;-72
2022/03/12 08:17:24;;;;;;;7.88;4.35;;;;;;;3.92;29.20;101617.63;5000176;28;20041;-72
2022/03/12 08:19:50;;;;;;;8.30;4.30;;;;;;;4.00;29.26;101617.03;5005035;28;20030;-72
2022/03/12 08:22:15;;;;;;;7.50;4.13;;;;;;;4.07;29.02;101614.72;5000427;28;20056;-72
2022/03/12 08:24:41;;;;;;;9.18;4.10;;;;;;;4.16;29.35;101614.16;4994942;28;20046;-72
2022/03/12 08:27:07;;;;;;;7.18;3.75;;;;;;;4.21;29.29;101612.59;4998592;28;20397;-72
2022/03/12 08:29:33;;;;;;;8.85;4.20;;;;;;;4.28;28.69;101611.13;5010588;28;20031;-71
2022/03/12 08:31:59;;;;;;;8.98;4.32;;;;;;;4.33;28.49;101612.19;5020606;28;20042;-71
2022/03/12 08:34:25;;;;;;;19.08;8.55;;;;;;;4.37;27.45;101606.22;4998987;28;20038;-72
2022/03/12 08:36:51;;;;;;;8.77;4.10;;;;;;;4.50;27.49;101612.78;5008425;28;20034;-71
2022/03/12 08:39:17;;;;;;;8.68;4.10;;;;;;;4.62;28.33;101621.06;5028430;28;20034;-72
2022/03/12 08:41:43;;;;;;;7.75;3.85;;;;;;;4.70;28.04;101613.50;5012237;28;20045;-72
2022/03/12 08:44:11;;;;;;;9.73;4.82;;;;;;;4.72;27.69;101614.44;4999401;28;20432;-72
2022/03/12 08:46:37;;;;;;;7.82;4.22;;;;;;;4.83;28.44;101616.59;4999497;28;20044;-72
2022/03/12 08:49:05;;;;;;;8.18;4.10;;;;;;;4.85;27.56;101619.25;4997457;28;20449;-72
2022/03/12 08:51:30;;;;;;;8.68;4.20;;;;;;;4.91;27.66;101623.81;4997838;28;20038;-72
2022/03/12 08:53:56;;;;;;;8.10;4.30;;;;;;;4.92;26.73;101625.56;5011989;28;20046;-72
2022/03/12 08:56:21;;;;;;;9.13;4.22;;;;;;;5.04;27.67;101619.03;4998439;28;20140;-72
2022/03/12 08:58:47;;;;;;;11.50;5.45;;;;;;;5.11;27.17;101625.38;5000117;28;20087;-72
2022/03/12 09:01:13;;;;;;;23.58;11.80;;;;;;;5.19;28.82;101617.78;4995809;28;20460;-72
2022/03/12 09:03:38;;;;;;;15.00;9.18;;;;;;;5.31;29.60;101617.28;5014772;28;20068;-72
2022/03/12 09:06:04;;;;;;;16.73;9.93;;;;;;;5.47;29.27;101619.56;5013781;28;20504;-71
2022/03/12 09:08:30;;;;;;;10.75;5.95;;;;;;;5.56;28.30;101616.38;4997725;28;20046;-71
2022/03/12 09:10:55;;;;;;;8.07;4.28;;;;;;;5.56;26.96;101619.88;4998695;28;20045;-72
2022/03/12 09:13:22;;;;;;;7.65;4.20;;;;;;;5.56;26.92;101617.25;4997401;28;20425;-72
2022/03/12 09:15:47;;;;;;;8.05;4.05;;;;;;;5.60;26.89;101618.22;5014064;28;20033;-72
2022/03/12 09:18:13;;;;;;;7.65;4.50;;;;;;;5.65;27.03;101612.28;5002973;28;20408;-72
2022/03/12 09:20:42;;;;;;;9.93;6.13;;;;;;;5.75;27.25;101617.81;4997101;28;20030;-72
2022/03/12 09:23:08;;;;;;;12.68;7.03;;;;;;;5.84;27.88;101608.53;4997099;28;20473;-73
2022/03/12 09:25:34;;;;;;;14.75;6.43;;;;;;;5.97;26.54;101601.91;4998574;28;20037;-71
2022/03/12 09:27:59;;;;;;;8.27;4.15;;;;;;;6.06;26.58;101609.19;4999269;28;20511;-72
2022/03/12 09:30:25;;;;;;;10.30;4.65;;;;;;;6.10;26.25;101596.22;4999359;28;20108;-72
2022/03/12 09:32:50;;;;;;;9.50;4.15;;;;;;;6.12;25.46;101599.75;5025136;28;20034;-72
2022/03/12 09:35:16;;;;;;;10.07;6.25;;;;;;;6.21;26.98;101596.53;5009229;28;20053;-73
2022/03/12 09:37:41;;;;;;;11.32;5.93;;;;;;;6.26;26.03;101591.41;5019262;28;20049;-72
2022/03/12 09:40:08;;;;;;;11.13;5.20;;;;;;;6.40;25.65;101592.69;4998821;28;20049;-72
2022/03/12 09:42:36;;;;;;;10.57;6.47;;;;;;;6.49;25.63;101585.06;5025409;28;20099;-72
2022/03/12 09:45:03;;;;;;;10.50;5.57;;;;;;;6.55;25.35;101585.25;5015291;28;20038;-71
2022/03/12 09:47:28;;;;;;;13.13;8.18;;;;;;;6.60;25.65;101582.72;4997211;28;20038;-72
2022/03/12 09:49:54;;;;;;;12.85;9.18;;;;;;;6.72;26.32;101576.94;5018499;28;20044;-72
2022/03/12 09:52:20;;;;;;;10.40;5.13;;;;;;;6.82;26.06;101586.81;5029415;28;20038;-72
2022/03/12 09:54:45;;;;;;;8.57;5.05;;;;;;;6.86;25.95;101578.16;4996934;28;20026;-72
2022/03/12 09:57:10;;;;;;;8.93;4.80;;;;;;;6.93;25.92;101582.72;4998166;28;20376;-72
2022/03/12 09:59:36;;;;;;;10.68;5.35;;;;;;;6.92;24.94;101573.09;5012906;28;20037;-72
2022/03/12 10:02:02;;;;;;;10.35;6.43;;;;;;;7.00;25.22;101571.53;4999007;28;20402;-72
2022/03/12 10:04:28;;;;;;;9.57;6.63;;;;;;;7.11;24.90;101571.81;4999028;28;20534;-72
2022/03/12 10:06:54;;;;;;;7.57;3.97;;;;;;;7.13;24.48;101566.59;5001584;28;20038;-72
2022/03/12 10:09:20;;;;;;;6.85;3.58;;;;;;;7.01;23.09;101554.94;5002103;28;20172;-72
2022/03/12 10:11:45;;;;;;;7.10;3.97;;;;;;;7.17;23.60;101568.44;4999829;28;20034;-72
2022/03/12 10:14:12;;;;;;;7.57;3.65;;;;;;;7.29;24.05;101560.88;5015074;28;20035;-72
2022/03/12 10:16:40;;;;;;;12.73;6.35;;;;;;;7.40;24.75;101567.25;5029481;28;20116;-72
2022/03/12 10:19:06;;;;;;;9.82;6.55;;;;;;;7.46;24.43;101556.88;5030861;28;20169;-72
2022/03/12 10:21:32;;;;;;;9.02;5.10;;;;;;;7.62;24.21;101559.84;5011599;28;20042;-71
2022/03/12 10:23:59;;;;;;;9.63;5.65;;;;;;;7.76;24.43;101558.44;5020103;28;20032;-71
2022/03/12 10:26:25;;;;;;;12.10;5.40;;;;;;;7.84;24.39;101553.34;5024416;28;20114;-71
2022/03/12 10:28:50;;;;;;;8.50;5.18;;;;;;;7.90;24.38;101541.19;5024782;28;20025;-71
2022/03/12 10:31:18;;;;;;;9.43;6.35;;;;;;;8.02;24.08;101542.34;5024033;28;20416;-70
2022/03/12 10:33:43;;;;;;;10.82;7.60;;;;;;;8.10;24.62;101539.00;5021939;28;20034;-71
2022/03/12 10:36:11;;;;;;;10.27;5.80;;;;;;;8.23;24.55;101548.00;5011393;28;20034;-70
2022/03/12 10:38:38;;;;;;;10.68;6.22;;;;;;;8.32;24.46;101540.28;5028606;28;20122;-71
2022/03/12 10:41:05;;;;;;;8.23;5.65;;;;;;;8.43;24.23;101537.00;5006301;28;20062;-71
2022/03/12 10:43:45;;;;;;;10.80;6.00;;;;;;;8.42;23.20;101535.25;5006608;28;20044;-71
2022/03/12 10:46:22;;;;;;;9.95;5.07;;;;;;;8.43;22.33;101532.63;5009362;28;20503;-70
2022/03/12 10:48:54;;;;;;;9.88;6.43;;;;;;;8.47;23.18;101533.59;5008298;28;20644;-71
2022/03/12 10:51:19;;;;;;;9.73;5.75;;;;;;;8.62;23.52;101531.25;5009482;28;20054;-70
2022/03/12 10:53:45;;;;;;;9.75;7.32;;;;;;;8.73;23.26;101534.06;5009947;28;20076;-71
2022/03/12 10:56:11;;;;;;;7.70;4.47;;;;;;;8.80;23.23;101532.41;5004212;28;20103;-71
2022/03/12 10:58:37;;;;;;;6.20;3.97;;;;;;;8.85;22.02;101536.88;5020412;28;20400;-71
2022/03/12 11:01:03;;;;;;;9.43;4.43;;;;;;;8.86;21.84;101532.53;5009682;28;20033;-71
2022/03/12 11:03:33;;;;;;;5.93;3.80;;;;;;;8.92;22.15;101532.63;5003107;28;20045;-71
2022/03/12 11:06:00;;;;;;;5.93;3.83;;;;;;;8.99;22.19;101523.97;5000088;28;20121;-71
2022/03/12 11:08:30;;;;;;;6.45;3.45;;;;;;;9.05;20.48;101524.06;5001990;28;20034;-73
2022/03/12 11:11:11;;;;;;;6.13;3.47;;;;;;;9.14;21.43;101524.22;5001893;28;20107;-71
2022/03/12 11:13:47;;;;;;;6.05;3.55;;;;;;;9.28;21.19;101518.28;5011939;28;20140;-72
2022/03/12 11:16:32;;;;;;;7.55;3.47;;;;;;;9.33;21.77;101508.69;5008665;28;20046;-72
2022/03/12 11:19:07;;;;;;;7.93;3.38;;;;;;;9.35;21.54;101512.22;5007007;28;20069;-71
2022/03/12 11:21:40;;;;;;;7.38;3.20;;;;;;;9.44;21.36;101520.25;5006880;28;20042;-72
2022/03/12 11:24:16;;;;;;;6.97;3.47;;;;;;;9.47;20.11;101512.38;5007907;28;20030;-72
2022/03/12 11:26:45;;;;;;;7.68;3.60;;;;;;;9.55;21.46;101516.00;5008164;28;20514;-72